sensor_id;sensor_type;location;lat;lon;timestamp;P1;durP1;ratioP1;P2;durP2;ratioP2
37945;SDS011;23769;52.478;13.448;2023-12-20T00:01:26;5.60;;;4.53;;
37945;SDS011;23769;52.478;13.448;2023-12-20T00:03:53;5.13;;;4.07;;
37945;SDS011;23769;52.478;13.448;2023-12-20T00:06:22;5.07;;;3.92;;
37945;SDS011;23769;52.478;13.448;2023-12-20T00:08:49;4.55;;;3.67;;
37945;SDS011;23769;52.478;13.448;2023-12-20T00:11:16;6.18;;;4.40;;
37945;SDS011;23769;52.478;13.448;2023-12-20T00:13:44;6.28;;;4.15;;
37945;SDS011;23769;52.478;13.448;2023-12-20T00:16:11;4.97;;;4.10;;
37945;SDS011;23769;52.478;13.448;2023-12-20T00:18:38;5.82;;;3.90;;
37945;SDS011;23769;52.478;13.448;2023-12-20T00:21:05;5.47;;;4.28;;
37945;SDS011;23769;52.478;13.448;2023-12-20T00:23:34;5.82;;;4.13;;
37945;SDS011;23769;52.478;13.448;2023-12-20T00:26:01;4.63;;;4.15;;
37945;SDS011;23769;52.478;13.448;2023-12-20T00:28:28;5.07;;;3.85;;
37945;SDS011;23769;52.478;13.448;2023-12-20T00:30:55;5.18;;;4.20;;
37945;SDS011;23769;52.478;13.448;2023-12-20T00:33:23;5.70;;;3.83;;
37945;SDS011;23769;52.478;13.448;2023-12-20T00:35:50;6.57;;;4.47;;
37945;SDS011;23769;52.478;13.448;2023-12-20T00:38:17;5.60;;;4.07;;
37945;SDS011;23769;52.478;13.448;2023-12-20T00:40:46;5.40;;;4.07;;
37945;SDS011;23769;52.478;13.448;2023-12-20T00:43:14;4.47;;;3.45;;
37945;SDS011;23769;52.478;13.448;2023-12-20T00:45:42;5.05;;;3.95;;
37945;SDS011;23769;52.478;13.448;2023-12-20T00:48:09;4.72;;;3.55;;
37945;SDS011;23769;52.478;13.448;2023-12-20T00:50:36;4.90;;;3.20;;
37945;SDS011;23769;52.478;13.448;2023-12-20T00:53:04;4.88;;;3.78;;
37945;SDS011;23769;52.478;13.448;2023-12-20T00:55:31;5.07;;;3.67;;
37945;SDS011;23769;52.478;13.448;2023-12-20T00:58:00;14.98;;;8.43;;
37945;SDS011;23769;52.478;13.448;2023-12-20T01:00:27;6.95;;;4.88;;
37945;SDS011;23769;52.478;13.448;2023-12-20T01:02:54;10.15;;;5.82;;
37945;SDS011;23769;52.478;13.448;2023-12-20T01:05:21;4.65;;;3.75;;
37945;SDS011;23769;52.478;13.448;2023-12-20T01:07:49;4.13;;;3.28;;
37945;SDS011;23769;52.478;13.448;2023-12-20T01:10:16;4.30;;;3.30;;
37945;SDS011;23769;52.478;13.448;2023-12-20T01:12:43;4.63;;;3.55;;
37945;SDS011;23769;52.478;13.448;2023-12-20T01:15:12;3.97;;;3.08;;
37945;SDS011;23769;52.478;13.448;2023-12-20T01:17:40;4.03;;;3.45;;
37945;SDS011;23769;52.478;13.448;2023-12-20T01:20:07;4.93;;;3.97;;
37945;SDS011;23769;52.478;13.448;2023-12-20T01:22:35;4.85;;;3.80;;
37945;SDS011;23769;52.478;13.448;2023-12-20T01:25:02;4.65;;;3.83;;
37945;SDS011;23769;52.478;13.448;2023-12-20T01:27:29;4.05;;;3.65;;
37945;SDS011;23769;52.478;13.448;2023-12-20T01:29:57;4.75;;;4.25;;
37945;SDS011;23769;52.478;13.448;2023-12-20T01:32:25;5.60;;;4.22;;
37945;SDS011;23769;52.478;13.448;2023-12-20T01:34:53;5.85;;;4.28;;
37945;SDS011;23769;52.478;13.448;2023-12-20T01:37:20;5.55;;;4.40;;
37945;SDS011;23769;52.478;13.448;2023-12-20T01:39:48;4.97;;;3.72;;
37945;SDS011;23769;52.478;13.448;2023-12-20T01:42:16;5.07;;;3.90;;
37945;SDS011;23769;52.478;13.448;2023-12-20T01:44:43;7.18;;;4.68;;
37945;SDS011;23769;52.478;13.448;2023-12-20T01:47:10;7.85;;;4.25;;
37945;SDS011;23769;52.478;13.448;2023-12-20T01:49:39;6.03;;;4.85;;
37945;SDS011;23769;52.478;13.448;2023-12-20T01:52:06;4.53;;;4.00;;
37945;SDS011;23769;52.478;13.448;2023-12-20T01:54:34;4.70;;;3.88;;
37945;SDS011;23769;52.478;13.448;2023-12-20T01:57:01;5.57;;;4.53;;
37945;SDS011;23769;52.478;13.448;2023-12-20T01:59:29;5.90;;;4.47;;
37945;SDS011;23769;52.478;13.448;2023-12-20T02:01:56;6.35;;;5.07;;
37945;SDS011;23769;52.478;13.448;2023-12-20T02:04:23;4.97;;;3.72;;
37945;SDS011;23769;52.478;13.448;2023-12-20T02:06:53;4.00;;;3.50;;
37945;SDS011;23769;52.478;13.448;2023-12-20T02:09:21;4.43;;;3.65;;
37945;SDS011;23769;52.478;13.448;2023-12-20T02:11:49;5.47;;;4.30;;
37945;SDS011;23769;52.478;13.448;2023-12-20T02:14:16;4.63;;;3.70;;
37945;SDS011;23769;52.478;13.448;2023-12-20T02:16:43;5.10;;;3.90;;
37945;SDS011;23769;52.478;13.448;2023-12-20T02:19:12;4.45;;;3.75;;
37945;SDS011;23769;52.478;13.448;2023-12-20T02:21:41;5.97;;;4.30;;
37945;SDS011;23769;52.478;13.448;2023-12-20T02:24:09;8.90;;;5.55;;
37945;SDS011;23769;52.478;13.448;2023-12-20T02:26:36;6.93;;;5.32;;
37945;SDS011;23769;52.478;13.448;2023-12-20T02:29:03;6.18;;;4.88;;
37945;SDS011;23769;52.478;13.448;2023-12-20T02:31:30;4.47;;;3.80;;
37945;SDS011;23769;52.478;13.448;2023-12-20T02:33:58;5.90;;;4.10;;
37945;SDS011;23769;52.478;13.448;2023-12-20T02:36:25;5.60;;;4.20;;
37945;SDS011;23769;52.478;13.448;2023-12-20T02:38:53;6.20;;;4.72;;
37945;SDS011;23769;52.478;13.448;2023-12-20T02:41:20;4.97;;;4.30;;
37945;SDS011;23769;52.478;13.448;2023-12-20T02:43:48;5.00;;;3.90;;
37945;SDS011;23769;52.478;13.448;2023-12-20T02:46:15;4.88;;;3.90;;
37945;SDS011;23769;52.478;13.448;2023-12-20T02:48:43;5.55;;;4.00;;
37945;SDS011;23769;52.478;13.448;2023-12-20T02:51:10;5.03;;;4.30;;
37945;SDS011;23769;52.478;13.448;2023-12-20T02:53:37;5.07;;;4.55;;
37945;SDS011;23769;52.478;13.448;2023-12-20T02:56:06;7.00;;;5.50;;
37945;SDS011;23769;52.478;13.448;2023-12-20T02:58:33;7.60;;;4.90;;
37945;SDS011;23769;52.478;13.448;2023-12-20T03:01:00;6.35;;;4.72;;
37945;SDS011;23769;52.478;13.448;2023-12-20T03:03:27;6.45;;;5.30;;
37945;SDS011;23769;52.478;13.448;2023-12-20T03:05:55;5.85;;;4.75;;
37945;SDS011;23769;52.478;13.448;2023-12-20T03:08:22;7.50;;;5.43;;
37945;SDS011;23769;52.478;13.448;2023-12-20T03:10:49;6.18;;;5.13;;
37945;SDS011;23769;52.478;13.448;2023-12-20T03:15:46;7.82;;;4.82;;
37945;SDS011;23769;52.478;13.448;2023-12-20T03:18:13;8.57;;;5.32;;
37945;SDS011;23769;52.478;13.448;2023-12-20T03:20:41;5.90;;;3.67;;
37945;SDS011;23769;52.478;13.448;2023-12-20T03:23:08;11.25;;;4.55;;
37945;SDS011;23769;52.478;13.448;2023-12-20T03:25:36;5.55;;;3.70;;
37945;SDS011;23769;52.478;13.448;2023-12-20T03:28:03;7.63;;;4.20;;
37945;SDS011;23769;52.478;13.448;2023-12-20T03:30:30;9.88;;;4.75;;
37945;SDS011;23769;52.478;13.448;2023-12-20T03:32:59;6.30;;;3.70;;
37945;SDS011;23769;52.478;13.448;2023-12-20T03:35:26;6.18;;;4.00;;
37945;SDS011;23769;52.478;13.448;2023-12-20T03:37:53;8.63;;;4.53;;
37945;SDS011;23769;52.478;13.448;2023-12-20T03:40:22;9.60;;;4.22;;
37945;SDS011;23769;52.478;13.448;2023-12-20T03:42:49;6.93;;;3.35;;
37945;SDS011;23769;52.478;13.448;2023-12-20T03:45:16;8.38;;;3.88;;
37945;SDS011;23769;52.478;13.448;2023-12-20T03:47:43;4.50;;;3.13;;
37945;SDS011;23769;52.478;13.448;2023-12-20T03:50:12;6.82;;;3.42;;
37945;SDS011;23769;52.478;13.448;2023-12-20T03:52:39;8.75;;;3.03;;
37945;SDS011;23769;52.478;13.448;2023-12-20T03:55:06;4.30;;;2.80;;
37945;SDS011;23769;52.478;13.448;2023-12-20T03:57:34;6.60;;;2.90;;
37945;SDS011;23769;52.478;13.448;2023-12-20T04:00:01;7.30;;;2.65;;
37945;SDS011;23769;52.478;13.448;2023-12-20T04:02:28;5.15;;;2.30;;
37945;SDS011;23769;52.478;13.448;2023-12-20T04:04:55;9.10;;;2.33;;
37945;SDS011;23769;52.478;13.448;2023-12-20T04:07:24;9.35;;;2.38;;
37945;SDS011;23769;52.478;13.448;2023-12-20T04:09:51;8.25;;;2.13;;
37945;SDS011;23769;52.478;13.448;2023-12-20T04:12:18;7.65;;;2.30;;
37945;SDS011;23769;52.478;13.448;2023-12-20T04:14:45;6.40;;;1.75;;
37945;SDS011;23769;52.478;13.448;2023-12-20T04:17:13;8.63;;;2.35;;
37945;SDS011;23769;52.478;13.448;2023-12-20T04:19:41;8.32;;;2.50;;
37945;SDS011;23769;52.478;13.448;2023-12-20T04:22:08;6.68;;;2.55;;
37945;SDS011;23769;52.478;13.448;2023-12-20T04:24:37;6.13;;;2.10;;
37945;SDS011;23769;52.478;13.448;2023-12-20T04:27:04;8.88;;;2.30;;
37945;SDS011;23769;52.478;13.448;2023-12-20T04:29:31;9.40;;;2.38;;
37945;SDS011;23769;52.478;13.448;2023-12-20T04:31:59;12.65;;;3.00;;
37945;SDS011;23769;52.478;13.448;2023-12-20T04:34:26;10.27;;;2.38;;
37945;SDS011;23769;52.478;13.448;2023-12-20T04:36:53;9.75;;;1.77;;
37945;SDS011;23769;52.478;13.448;2023-12-20T04:39:20;6.82;;;2.38;;
37945;SDS011;23769;52.478;13.448;2023-12-20T04:41:49;5.50;;;1.98;;
37945;SDS011;23769;52.478;13.448;2023-12-20T04:44:16;6.80;;;1.65;;
37945;SDS011;23769;52.478;13.448;2023-12-20T04:46:43;5.53;;;1.73;;
37945;SDS011;23769;52.478;13.448;2023-12-20T04:49:11;9.05;;;2.35;;
37945;SDS011;23769;52.478;13.448;2023-12-20T04:51:38;6.45;;;2.40;;
37945;SDS011;23769;52.478;13.448;2023-12-20T04:54:05;9.07;;;1.65;;
37945;SDS011;23769;52.478;13.448;2023-12-20T04:56:32;10.45;;;2.53;;
37945;SDS011;23769;52.478;13.448;2023-12-20T04:59:01;6.53;;;1.80;;
37945;SDS011;23769;52.478;13.448;2023-12-20T05:01:28;10.07;;;2.50;;
37945;SDS011;23769;52.478;13.448;2023-12-20T05:03:55;11.93;;;3.53;;
37945;SDS011;23769;52.478;13.448;2023-12-20T05:06:23;10.32;;;2.78;;
37945;SDS011;23769;52.478;13.448;2023-12-20T05:08:50;13.27;;;2.47;;
37945;SDS011;23769;52.478;13.448;2023-12-20T05:11:17;11.07;;;2.55;;
37945;SDS011;23769;52.478;13.448;2023-12-20T05:13:44;8.40;;;2.42;;
37945;SDS011;23769;52.478;13.448;2023-12-20T05:16:13;12.15;;;2.60;;
37945;SDS011;23769;52.478;13.448;2023-12-20T05:18:42;7.78;;;2.42;;
37945;SDS011;23769;52.478;13.448;2023-12-20T05:21:10;11.55;;;2.70;;
37945;SDS011;23769;52.478;13.448;2023-12-20T05:23:37;7.47;;;2.25;;
37945;SDS011;23769;52.478;13.448;2023-12-20T05:26:04;8.88;;;2.47;;
37945;SDS011;23769;52.478;13.448;2023-12-20T05:28:31;9.50;;;2.55;;
37945;SDS011;23769;52.478;13.448;2023-12-20T05:30:58;8.50;;;2.03;;
37945;SDS011;23769;52.478;13.448;2023-12-20T05:33:27;9.93;;;2.05;;
37945;SDS011;23769;52.478;13.448;2023-12-20T05:35:54;11.05;;;3.17;;
37945;SDS011;23769;52.478;13.448;2023-12-20T05:38:21;9.50;;;2.83;;
37945;SDS011;23769;52.478;13.448;2023-12-20T05:40:49;8.55;;;1.98;;
37945;SDS011;23769;52.478;13.448;2023-12-20T05:43:16;8.93;;;2.20;;
37945;SDS011;23769;52.478;13.448;2023-12-20T05:45:43;8.88;;;2.10;;
37945;SDS011;23769;52.478;13.448;2023-12-20T05:48:10;10.90;;;2.10;;
37945;SDS011;23769;52.478;13.448;2023-12-20T05:50:39;10.52;;;2.15;;
37945;SDS011;23769;52.478;13.448;2023-12-20T05:53:06;12.52;;;2.20;;
37945;SDS011;23769;52.478;13.448;2023-12-20T05:55:33;10.07;;;2.25;;
37945;SDS011;23769;52.478;13.448;2023-12-20T05:58:00;12.57;;;2.08;;
37945;SDS011;23769;52.478;13.448;2023-12-20T06:00:28;13.07;;;2.22;;
37945;SDS011;23769;52.478;13.448;2023-12-20T06:02:55;12.02;;;1.98;;
37945;SDS011;23769;52.478;13.448;2023-12-20T06:10:54;11.30;;;2.67;;
37945;SDS011;23769;52.478;13.448;2023-12-20T06:13:21;10.63;;;3.00;;
37945;SDS011;23769;52.478;13.448;2023-12-20T06:15:49;12.30;;;2.67;;
37945;SDS011;23769;52.478;13.448;2023-12-20T06:18:16;9.93;;;2.58;;
37945;SDS011;23769;52.478;13.448;2023-12-20T06:20:43;7.20;;;1.80;;
37945;SDS011;23769;52.478;13.448;2023-12-20T06:23:10;10.82;;;2.28;;
37945;SDS011;23769;52.478;13.448;2023-12-20T06:25:37;12.40;;;2.63;;
37945;SDS011;23769;52.478;13.448;2023-12-20T06:28:06;10.63;;;2.67;;
37945;SDS011;23769;52.478;13.448;2023-12-20T06:30:35;10.95;;;2.72;;
37945;SDS011;23769;52.478;13.448;2023-12-20T06:33:02;11.77;;;3.30;;
37945;SDS011;23769;52.478;13.448;2023-12-20T06:35:31;9.40;;;1.98;;
37945;SDS011;23769;52.478;13.448;2023-12-20T06:37:58;10.65;;;2.20;;
37945;SDS011;23769;52.478;13.448;2023-12-20T06:40:26;9.80;;;2.33;;
37945;SDS011;23769;52.478;13.448;2023-12-20T06:42:53;10.75;;;2.53;;
37945;SDS011;23769;52.478;13.448;2023-12-20T06:45:22;10.43;;;2.20;;
37945;SDS011;23769;52.478;13.448;2023-12-20T06:47:49;9.18;;;2.78;;
37945;SDS011;23769;52.478;13.448;2023-12-20T06:50:16;7.70;;;2.40;;
37945;SDS011;23769;52.478;13.448;2023-12-20T06:52:44;11.10;;;2.30;;
37945;SDS011;23769;52.478;13.448;2023-12-20T06:55:11;9.13;;;2.60;;
37945;SDS011;23769;52.478;13.448;2023-12-20T06:57:38;10.27;;;2.22;;
37945;SDS011;23769;52.478;13.448;2023-12-20T07:00:06;7.40;;;2.50;;
37945;SDS011;23769;52.478;13.448;2023-12-20T07:02:35;8.88;;;2.22;;
37945;SDS011;23769;52.478;13.448;2023-12-20T07:05:02;4.95;;;1.90;;
37945;SDS011;23769;52.478;13.448;2023-12-20T07:07:30;8.43;;;2.10;;
37945;SDS011;23769;52.478;13.448;2023-12-20T07:09:57;8.50;;;2.20;;
37945;SDS011;23769;52.478;13.448;2023-12-20T07:12:24;8.63;;;2.65;;
37945;SDS011;23769;52.478;13.448;2023-12-20T07:14:52;8.23;;;2.15;;
37945;SDS011;23769;52.478;13.448;2023-12-20T07:17:19;11.55;;;2.58;;
37945;SDS011;23769;52.478;13.448;2023-12-20T07:19:48;10.57;;;2.33;;
37945;SDS011;23769;52.478;13.448;2023-12-20T07:22:15;11.60;;;3.15;;
37945;SDS011;23769;52.478;13.448;2023-12-20T07:24:43;8.95;;;2.33;;
37945;SDS011;23769;52.478;13.448;2023-12-20T07:27:11;8.32;;;1.92;;
37945;SDS011;23769;52.478;13.448;2023-12-20T07:29:38;9.18;;;2.17;;
37945;SDS011;23769;52.478;13.448;2023-12-20T07:32:05;7.40;;;2.03;;
37945;SDS011;23769;52.478;13.448;2023-12-20T07:34:33;13.50;;;2.50;;
37945;SDS011;23769;52.478;13.448;2023-12-20T07:37:02;9.60;;;2.35;;
37945;SDS011;23769;52.478;13.448;2023-12-20T07:39:29;7.00;;;2.25;;
37945;SDS011;23769;52.478;13.448;2023-12-20T07:41:56;8.10;;;1.75;;
37945;SDS011;23769;52.478;13.448;2023-12-20T07:44:25;7.65;;;1.83;;
37945;SDS011;23769;52.478;13.448;2023-12-20T07:46:52;7.85;;;1.90;;
37945;SDS011;23769;52.478;13.448;2023-12-20T07:49:19;7.93;;;2.10;;
37945;SDS011;23769;52.478;13.448;2023-12-20T07:51:46;10.98;;;1.70;;
37945;SDS011;23769;52.478;13.448;2023-12-20T07:54:15;11.48;;;2.33;;
37945;SDS011;23769;52.478;13.448;2023-12-20T07:56:42;8.75;;;1.75;;
37945;SDS011;23769;52.478;13.448;2023-12-20T07:59:10;12.25;;;3.33;;
37945;SDS011;23769;52.478;13.448;2023-12-20T08:01:37;9.38;;;2.10;;
37945;SDS011;23769;52.478;13.448;2023-12-20T08:04:04;5.55;;;1.90;;
37945;SDS011;23769;52.478;13.448;2023-12-20T08:06:32;10.45;;;2.30;;
37945;SDS011;23769;52.478;13.448;2023-12-20T08:08:59;11.75;;;1.48;;
37945;SDS011;23769;52.478;13.448;2023-12-20T08:11:27;9.45;;;2.28;;
37945;SDS011;23769;52.478;13.448;2023-12-20T08:13:55;9.32;;;1.60;;
37945;SDS011;23769;52.478;13.448;2023-12-20T08:16:22;15.73;;;4.82;;
37945;SDS011;23769;52.478;13.448;2023-12-20T08:18:50;6.90;;;1.65;;
37945;SDS011;23769;52.478;13.448;2023-12-20T08:21:17;7.72;;;1.85;;
37945;SDS011;23769;52.478;13.448;2023-12-20T08:23:47;9.57;;;2.17;;
37945;SDS011;23769;52.478;13.448;2023-12-20T08:26:18;7.45;;;2.33;;
37945;SDS011;23769;52.478;13.448;2023-12-20T08:28:47;6.38;;;2.00;;
37945;SDS011;23769;52.478;13.448;2023-12-20T08:31:15;5.43;;;2.05;;
37945;SDS011;23769;52.478;13.448;2023-12-20T08:33:43;9.15;;;2.55;;
37945;SDS011;23769;52.478;13.448;2023-12-20T08:36:10;11.10;;;2.47;;
37945;SDS011;23769;52.478;13.448;2023-12-20T08:38:37;10.52;;;3.00;;
37945;SDS011;23769;52.478;13.448;2023-12-20T08:41:05;10.05;;;2.10;;
37945;SDS011;23769;52.478;13.448;2023-12-20T08:43:33;12.40;;;2.67;;
37945;SDS011;23769;52.478;13.448;2023-12-20T08:46:02;9.38;;;2.15;;
37945;SDS011;23769;52.478;13.448;2023-12-20T08:48:30;8.07;;;2.20;;
37945;SDS011;23769;52.478;13.448;2023-12-20T08:50:57;7.43;;;2.10;;
37945;SDS011;23769;52.478;13.448;2023-12-20T08:53:24;10.93;;;2.45;;
37945;SDS011;23769;52.478;13.448;2023-12-20T08:55:52;6.90;;;2.00;;
37945;SDS011;23769;52.478;13.448;2023-12-20T08:58:19;7.70;;;1.60;;
37945;SDS011;23769;52.478;13.448;2023-12-20T09:00:46;9.70;;;2.25;;
37945;SDS011;23769;52.478;13.448;2023-12-20T09:03:15;10.65;;;2.50;;
37945;SDS011;23769;52.478;13.448;2023-12-20T09:05:42;7.70;;;2.47;;
37945;SDS011;23769;52.478;13.448;2023-12-20T09:08:09;5.63;;;2.95;;
37945;SDS011;23769;52.478;13.448;2023-12-20T09:10:37;8.68;;;1.63;;
37945;SDS011;23769;52.478;13.448;2023-12-20T09:13:04;9.73;;;2.33;;
37945;SDS011;23769;52.478;13.448;2023-12-20T09:15:31;5.63;;;2.35;;
37945;SDS011;23769;52.478;13.448;2023-12-20T09:17:59;19.58;;;3.88;;
37945;SDS011;23769;52.478;13.448;2023-12-20T09:20:27;8.98;;;2.20;;
37945;SDS011;23769;52.478;13.448;2023-12-20T09:22:54;6.40;;;2.58;;
37945;SDS011;23769;52.478;13.448;2023-12-20T09:25:21;9.38;;;1.38;;
37945;SDS011;23769;52.478;13.448;2023-12-20T09:27:48;8.93;;;2.25;;
37945;SDS011;23769;52.478;13.448;2023-12-20T09:30:16;8.02;;;1.73;;
37945;SDS011;23769;52.478;13.448;2023-12-20T09:32:43;9.93;;;2.00;;
37945;SDS011;23769;52.478;13.448;2023-12-20T09:35:10;8.60;;;1.70;;
37945;SDS011;23769;52.478;13.448;2023-12-20T09:37:39;12.32;;;2.10;;
37945;SDS011;23769;52.478;13.448;2023-12-20T09:40:10;8.50;;;2.17;;
37945;SDS011;23769;52.478;13.448;2023-12-20T09:42:41;7.95;;;2.42;;
37945;SDS011;23769;52.478;13.448;2023-12-20T09:45:11;10.68;;;2.22;;
37945;SDS011;23769;52.478;13.448;2023-12-20T09:47:45;11.00;;;2.60;;
37945;SDS011;23769;52.478;13.448;2023-12-20T09:50:13;6.93;;;2.13;;
37945;SDS011;23769;52.478;13.448;2023-12-20T09:52:42;8.90;;;1.70;;
37945;SDS011;23769;52.478;13.448;2023-12-20T09:55:10;7.20;;;2.30;;
37945;SDS011;23769;52.478;13.448;2023-12-20T09:57:37;9.65;;;2.92;;
37945;SDS011;23769;52.478;13.448;2023-12-20T10:00:05;7.63;;;2.15;;
37945;SDS011;23769;52.478;13.448;2023-12-20T10:02:33;7.18;;;2.03;;
37945;SDS011;23769;52.478;13.448;2023-12-20T10:05:01;9.40;;;2.67;;
37945;SDS011;23769;52.478;13.448;2023-12-20T10:07:29;7.22;;;1.63;;
37945;SDS011;23769;52.478;13.448;2023-12-20T10:09:58;7.20;;;2.50;;
37945;SDS011;23769;52.478;13.448;2023-12-20T10:12:25;8.35;;;1.83;;
37945;SDS011;23769;52.478;13.448;2023-12-20T10:14:52;10.93;;;2.25;;
37945;SDS011;23769;52.478;13.448;2023-12-20T10:17:20;10.48;;;2.88;;
37945;SDS011;23769;52.478;13.448;2023-12-20T10:19:49;8.68;;;2.67;;
37945;SDS011;23769;52.478;13.448;2023-12-20T10:22:16;14.07;;;4.68;;
37945;SDS011;23769;52.478;13.448;2023-12-20T10:24:44;7.60;;;2.42;;
37945;SDS011;23769;52.478;13.448;2023-12-20T10:27:14;8.25;;;1.95;;
37945;SDS011;23769;52.478;13.448;2023-12-20T10:29:44;8.80;;;2.55;;
37945;SDS011;23769;52.478;13.448;2023-12-20T10:32:21;11.63;;;2.90;;
37945;SDS011;23769;52.478;13.448;2023-12-20T10:34:49;7.28;;;2.60;;
37945;SDS011;23769;52.478;13.448;2023-12-20T10:37:16;15.85;;;5.50;;
37945;SDS011;23769;52.478;13.448;2023-12-20T10:39:43;11.43;;;2.60;;
37945;SDS011;23769;52.478;13.448;2023-12-20T10:42:11;9.73;;;1.67;;
37945;SDS011;23769;52.478;13.448;2023-12-20T10:44:40;10.40;;;2.75;;
37945;SDS011;23769;52.478;13.448;2023-12-20T10:47:07;12.35;;;2.30;;
37945;SDS011;23769;52.478;13.448;2023-12-20T10:49:36;12.50;;;2.45;;
37945;SDS011;23769;52.478;13.448;2023-12-20T10:52:04;17.42;;;3.28;;
37945;SDS011;23769;52.478;13.448;2023-12-20T10:54:32;10.00;;;2.20;;
37945;SDS011;23769;52.478;13.448;2023-12-20T10:57:00;9.93;;;2.40;;
37945;SDS011;23769;52.478;13.448;2023-12-20T10:59:30;9.38;;;1.77;;
37945;SDS011;23769;52.478;13.448;2023-12-20T11:02:00;10.52;;;2.40;;
37945;SDS011;23769;52.478;13.448;2023-12-20T11:04:31;8.68;;;2.25;;
37945;SDS011;23769;52.478;13.448;2023-12-20T11:07:03;8.50;;;1.85;;
37945;SDS011;23769;52.478;13.448;2023-12-20T11:09:33;8.63;;;2.72;;
37945;SDS011;23769;52.478;13.448;2023-12-20T11:12:03;9.13;;;2.88;;
37945;SDS011;23769;52.478;13.448;2023-12-20T11:14:35;17.20;;;2.60;;
37945;SDS011;23769;52.478;13.448;2023-12-20T11:17:08;11.50;;;2.38;;
37945;SDS011;23769;52.478;13.448;2023-12-20T11:19:37;14.75;;;3.30;;
37945;SDS011;23769;52.478;13.448;2023-12-20T11:22:05;12.48;;;3.20;;
37945;SDS011;23769;52.478;13.448;2023-12-20T11:24:32;9.15;;;2.30;;
37945;SDS011;23769;52.478;13.448;2023-12-20T11:27:03;15.02;;;2.70;;
37945;SDS011;23769;52.478;13.448;2023-12-20T11:29:33;8.57;;;2.50;;
37945;SDS011;23769;52.478;13.448;2023-12-20T11:32:02;7.57;;;2.40;;
37945;SDS011;23769;52.478;13.448;2023-12-20T11:34:32;8.80;;;2.45;;
37945;SDS011;23769;52.478;13.448;2023-12-20T11:37:00;12.43;;;3.53;;
37945;SDS011;23769;52.478;13.448;2023-12-20T11:39:29;9.60;;;3.22;;
37945;SDS011;23769;52.478;13.448;2023-12-20T11:41:57;11.05;;;3.20;;
37945;SDS011;23769;52.478;13.448;2023-12-20T11:44:30;7.95;;;2.17;;
37945;SDS011;23769;52.478;13.448;2023-12-20T11:46:58;14.57;;;3.65;;
37945;SDS011;23769;52.478;13.448;2023-12-20T11:49:25;11.70;;;2.53;;
37945;SDS011;23769;52.478;13.448;2023-12-20T11:51:55;11.60;;;2.03;;
37945;SDS011;23769;52.478;13.448;2023-12-20T11:54:23;7.88;;;2.50;;
37945;SDS011;23769;52.478;13.448;2023-12-20T11:56:50;10.20;;;2.67;;
37945;SDS011;23769;52.478;13.448;2023-12-20T11:59:17;10.38;;;3.42;;
37945;SDS011;23769;52.478;13.448;2023-12-20T12:01:47;14.20;;;2.60;;
37945;SDS011;23769;52.478;13.448;2023-12-20T12:04:15;11.15;;;2.75;;
37945;SDS011;23769;52.478;13.448;2023-12-20T12:06:43;13.02;;;4.32;;
37945;SDS011;23769;52.478;13.448;2023-12-20T12:09:12;8.43;;;2.40;;
37945;SDS011;23769;52.478;13.448;2023-12-20T12:11:40;10.00;;;2.05;;
37945;SDS011;23769;52.478;13.448;2023-12-20T12:14:08;12.18;;;3.70;;
37945;SDS011;23769;52.478;13.448;2023-12-20T12:16:35;10.15;;;2.63;;
37945;SDS011;23769;52.478;13.448;2023-12-20T12:19:02;10.82;;;2.85;;
37945;SDS011;23769;52.478;13.448;2023-12-20T12:21:30;11.35;;;3.60;;
37945;SDS011;23769;52.478;13.448;2023-12-20T12:24:06;10.98;;;2.78;;
37945;SDS011;23769;52.478;13.448;2023-12-20T12:26:34;10.10;;;1.95;;
37945;SDS011;23769;52.478;13.448;2023-12-20T12:29:02;10.48;;;2.60;;
37945;SDS011;23769;52.478;13.448;2023-12-20T12:31:30;8.15;;;2.17;;
37945;SDS011;23769;52.478;13.448;2023-12-20T12:33:57;8.40;;;2.05;;
37945;SDS011;23769;52.478;13.448;2023-12-20T12:36:24;9.50;;;2.42;;
37945;SDS011;23769;52.478;13.448;2023-12-20T12:38:51;7.85;;;1.85;;
37945;SDS011;23769;52.478;13.448;2023-12-20T12:41:19;7.90;;;2.53;;
37945;SDS011;23769;52.478;13.448;2023-12-20T12:43:47;8.80;;;2.13;;
37945;SDS011;23769;52.478;13.448;2023-12-20T12:46:15;11.48;;;3.15;;
37945;SDS011;23769;52.478;13.448;2023-12-20T12:48:42;7.72;;;2.03;;
37945;SDS011;23769;52.478;13.448;2023-12-20T12:51:10;11.35;;;3.22;;
37945;SDS011;23769;52.478;13.448;2023-12-20T12:53:38;10.48;;;3.00;;
37945;SDS011;23769;52.478;13.448;2023-12-20T12:56:06;7.40;;;2.30;;
37945;SDS011;23769;52.478;13.448;2023-12-20T12:58:33;11.07;;;2.65;;
37945;SDS011;23769;52.478;13.448;2023-12-20T13:01:01;11.05;;;2.88;;
37945;SDS011;23769;52.478;13.448;2023-12-20T13:03:29;5.72;;;2.42;;
37945;SDS011;23769;52.478;13.448;2023-12-20T13:05:56;7.22;;;2.53;;
37945;SDS011;23769;52.478;13.448;2023-12-20T13:08:23;10.07;;;2.45;;
37945;SDS011;23769;52.478;13.448;2023-12-20T13:10:50;14.75;;;2.95;;
37945;SDS011;23769;52.478;13.448;2023-12-20T13:13:18;10.55;;;3.65;;
37945;SDS011;23769;52.478;13.448;2023-12-20T13:15:45;8.25;;;2.53;;
37945;SDS011;23769;52.478;13.448;2023-12-20T13:18:18;9.18;;;3.08;;
37945;SDS011;23769;52.478;13.448;2023-12-20T13:20:45;9.70;;;3.05;;
37945;SDS011;23769;52.478;13.448;2023-12-20T13:23:12;9.18;;;3.10;;
37945;SDS011;23769;52.478;13.448;2023-12-20T13:25:39;8.95;;;3.00;;
37945;SDS011;23769;52.478;13.448;2023-12-20T13:28:07;8.23;;;2.90;;
37945;SDS011;23769;52.478;13.448;2023-12-20T13:30:34;11.02;;;3.30;;
37945;SDS011;23769;52.478;13.448;2023-12-20T13:33:01;10.05;;;3.38;;
37945;SDS011;23769;52.478;13.448;2023-12-20T13:35:30;8.63;;;2.47;;
37945;SDS011;23769;52.478;13.448;2023-12-20T13:37:57;5.13;;;1.88;;
37945;SDS011;23769;52.478;13.448;2023-12-20T13:40:25;7.07;;;2.20;;
37945;SDS011;23769;52.478;13.448;2023-12-20T13:42:53;3.53;;;1.60;;
37945;SDS011;23769;52.478;13.448;2023-12-20T13:45:21;4.82;;;1.33;;
37945;SDS011;23769;52.478;13.448;2023-12-20T13:47:48;4.85;;;1.45;;
37945;SDS011;23769;52.478;13.448;2023-12-20T13:50:15;3.78;;;1.55;;
37945;SDS011;23769;52.478;13.448;2023-12-20T13:52:44;3.40;;;1.67;;
37945;SDS011;23769;52.478;13.448;2023-12-20T13:55:12;4.68;;;1.20;;
37945;SDS011;23769;52.478;13.448;2023-12-20T13:57:39;4.68;;;1.48;;
37945;SDS011;23769;52.478;13.448;2023-12-20T14:00:07;3.78;;;1.90;;
37945;SDS011;23769;52.478;13.448;2023-12-20T14:02:39;7.50;;;1.75;;
37945;SDS011;23769;52.478;13.448;2023-12-20T14:05:06;5.18;;;1.98;;
37945;SDS011;23769;52.478;13.448;2023-12-20T14:07:34;5.95;;;2.03;;
37945;SDS011;23769;52.478;13.448;2023-12-20T14:10:02;4.20;;;1.80;;
37945;SDS011;23769;52.478;13.448;2023-12-20T14:12:30;5.13;;;2.15;;
37945;SDS011;23769;52.478;13.448;2023-12-20T14:15:01;5.55;;;1.70;;
37945;SDS011;23769;52.478;13.448;2023-12-20T14:17:28;6.63;;;1.60;;
37945;SDS011;23769;52.478;13.448;2023-12-20T14:19:56;5.65;;;1.60;;
37945;SDS011;23769;52.478;13.448;2023-12-20T14:22:24;3.38;;;1.15;;
37945;SDS011;23769;52.478;13.448;2023-12-20T14:24:51;5.88;;;2.33;;
37945;SDS011;23769;52.478;13.448;2023-12-20T14:27:20;4.53;;;1.63;;
37945;SDS011;23769;52.478;13.448;2023-12-20T14:29:49;10.70;;;4.82;;
37945;SDS011;23769;52.478;13.448;2023-12-20T14:32:16;3.17;;;1.60;;
37945;SDS011;23769;52.478;13.448;2023-12-20T14:34:44;7.43;;;1.60;;
37945;SDS011;23769;52.478;13.448;2023-12-20T14:37:11;3.42;;;0.93;;
37945;SDS011;23769;52.478;13.448;2023-12-20T14:39:39;3.05;;;0.70;;
37945;SDS011;23769;52.478;13.448;2023-12-20T14:42:06;5.00;;;1.20;;